Unadilla, Nebraska
Current Conditions -  °F | °C
As of 9:55 AM on Sunday 21 Dec 2014 (Local Time) from KAFK Reporting Station
Haze Haze  
Wind Chill: 30°   Ceiling: 800
Heat Index: 39°   Visibility: 5mi
Dew Point: 39°   Wind: 15mph
Humidity: 100%   Direction: 190°S
Pressure: 29.9"   Gusts: NA
Location:  40.68°N, 96.27°W
Report Text: KAFK 211555Z AUTO 19013KT 5SM BR OVC008 04/04 A2990 RMK AO2 T00380038
Loading
Personal Weather Stations






























Interactive Weather Map New forecast layout! Learn more

10-Day Weather Forecast

Advertisements
Track Severe Weather on mobile